createdAt,value
2022-12-15T00:07:13.222Z,97.4
2022-12-15T00:17:13.310Z,97.4
2022-12-15T00:27:13.252Z,97.4
2022-12-15T00:37:13.320Z,97.5
2022-12-15T00:47:13.318Z,97.3
2022-12-15T00:57:13.382Z,97.4
2022-12-15T01:17:13.478Z,97.4
2022-12-15T01:27:13.465Z,97.4
2022-12-15T01:37:13.534Z,97.4
2022-12-15T01:47:13.637Z,97.5
2022-12-15T01:57:13.576Z,97.5
2022-12-15T02:07:13.591Z,97.5
2022-12-15T02:17:13.660Z,97.4
2022-12-15T02:27:13.647Z,97.5
2022-12-15T02:37:13.740Z,97.4
2022-12-15T02:47:13.748Z,97.3
2022-12-15T02:57:13.825Z,97.4
2022-12-15T03:07:13.788Z,97.3
2022-12-15T03:17:13.888Z,97.3
2022-12-15T03:27:13.869Z,97.3
2022-12-15T03:37:13.938Z,97.3
2022-12-15T03:57:13.986Z,97.4
2022-12-15T04:07:14.014Z,97.6
2022-12-15T04:17:14.139Z,97.5
2022-12-15T04:27:14.105Z,97.4
2022-12-15T04:37:14.149Z,97.5
2022-12-15T04:47:14.157Z,97.5
2022-12-15T04:57:14.300Z,97.4
2022-12-15T05:07:14.210Z,97.5
2022-12-15T05:17:14.350Z,97.5
2022-12-15T05:27:14.285Z,97.4
2022-12-15T05:37:14.348Z,97.5
2022-12-15T05:47:14.393Z,97.5
2022-12-15T05:57:14.433Z,97.5
2022-12-15T06:07:14.413Z,97.5
2022-12-15T06:17:14.492Z,97.5
2022-12-15T06:27:14.471Z,97.5
2022-12-15T06:37:14.549Z,97.5
2022-12-15T06:47:14.623Z,97.5
2022-12-15T06:57:14.614Z,97.5
2022-12-15T07:07:14.612Z,97.5
2022-12-15T07:17:14.685Z,97.5
2022-12-15T07:27:14.709Z,97.4
2022-12-15T07:37:14.752Z,97.4
2022-12-15T07:47:14.789Z,97.3
2022-12-15T07:57:14.865Z,97.3
2022-12-15T08:07:14.830Z,97.2
2022-12-15T08:17:14.892Z,97.3
2022-12-15T08:27:14.896Z,97.2
2022-12-15T08:37:15.041Z,97.2
2022-12-15T08:47:14.966Z,97
2022-12-15T08:57:15.279Z,97.1
2022-12-15T09:07:15.063Z,97.1
2022-12-15T09:17:15.208Z,97.1
2022-12-15T09:27:15.144Z,97.1
2022-12-15T09:37:15.197Z,97.1
2022-12-15T09:47:15.192Z,97.1
2022-12-15T09:57:15.287Z,97.1
2022-12-15T10:07:15.253Z,97.2
2022-12-15T10:17:15.316Z,97.1
2022-12-15T10:27:15.327Z,97.1
2022-12-15T10:37:15.375Z,97
2022-12-15T10:47:15.427Z,96.9
2022-12-15T10:57:15.456Z,96.9
2022-12-15T11:07:15.455Z,96.8
2022-12-15T11:17:15.520Z,96.9
2022-12-15T11:27:15.520Z,96.6
2022-12-15T11:37:15.581Z,96.7
2022-12-15T11:47:15.590Z,96.5
2022-12-15T11:57:15.646Z,95.9
2022-12-15T12:07:15.650Z,95.7
2022-12-15T12:17:15.688Z,95.6
2022-12-15T12:27:15.720Z,95.7
2022-12-15T12:37:15.751Z,95.8
2022-12-15T12:47:15.818Z,95.8
2022-12-15T12:57:15.868Z,95.8
2022-12-15T13:17:26.439Z,95.8
2022-12-15T13:27:16.079Z,95.5
2022-12-15T13:37:15.951Z,95.4
2022-12-15T13:47:15.962Z,95.4
2022-12-15T13:57:16.023Z,95.3
2022-12-15T14:07:16.036Z,95.1
2022-12-15T14:17:16.104Z,95.3
2022-12-15T14:27:16.103Z,95.3
2022-12-15T14:37:16.155Z,95.5
2022-12-15T14:47:16.199Z,95.5
2022-12-15T14:57:16.225Z,95.9
2022-12-15T15:07:16.237Z,96.1
2022-12-15T15:17:16.308Z,95.7
2022-12-15T15:27:16.328Z,95.8
2022-12-15T15:37:18.144Z,95.7
2022-12-15T15:47:16.379Z,95.7
2022-12-15T15:57:16.539Z,96.1
2022-12-15T16:07:16.447Z,96.3
2022-12-15T16:17:16.573Z,96.6
2022-12-15T16:27:16.544Z,96.8
2022-12-15T16:37:16.915Z,96.8
2022-12-15T16:47:16.590Z,96.8
2022-12-15T16:57:16.641Z,96.9
2022-12-15T17:17:16.739Z,96.9
2022-12-15T17:27:16.752Z,96.6
2022-12-15T17:37:16.960Z,96.6
2022-12-15T17:47:16.823Z,96.9
2022-12-15T17:57:16.884Z,97.1
2022-12-15T18:07:16.872Z,97.1
2022-12-15T18:17:17.045Z,97.1
2022-12-15T18:27:16.964Z,97.2
2022-12-15T18:37:17.027Z,97.3
2022-12-15T18:47:17.068Z,97.3
2022-12-15T18:57:17.097Z,97.1
2022-12-15T19:17:17.176Z,96.6
2022-12-15T19:27:17.195Z,96.8
2022-12-15T19:37:17.326Z,96.7
2022-12-15T19:47:17.253Z,96.7
2022-12-15T19:57:17.306Z,96.9
2022-12-15T20:07:17.331Z,96.9
2022-12-15T20:17:17.402Z,96.8
2022-12-15T20:27:17.420Z,96.8
2022-12-15T20:37:17.468Z,96.9
2022-12-15T20:47:17.480Z,96.8
2022-12-15T20:57:17.571Z,96.6
2022-12-15T21:07:17.580Z,96.7
2022-12-15T21:17:17.747Z,96.4
2022-12-15T21:27:17.655Z,96.3
2022-12-15T21:37:17.734Z,96.5
2022-12-15T21:47:17.732Z,96.2
2022-12-15T21:57:17.786Z,96.4
2022-12-15T22:07:17.798Z,96.1
2022-12-15T22:17:17.904Z,96.4
2022-12-15T22:27:17.894Z,96.1
2022-12-15T22:37:17.946Z,96.3
2022-12-15T22:47:17.975Z,96.3
2022-12-15T22:57:18.010Z,96
2022-12-15T23:07:18.045Z,96
2022-12-15T23:17:18.170Z,96.1
2022-12-15T23:27:18.150Z,96
2022-12-15T23:37:18.176Z,96
2022-12-15T23:47:18.214Z,95.9
2022-12-15T23:57:18.257Z,95.8
